sensor_id;sensor_type;location;lat;lon;timestamp;P1;durP1;ratioP1;P2;durP2;ratioP2
19780;SDS011;10050;55.492;13.506;2024-03-02T00:00:18;71.40;;;38.07;;
19780;SDS011;10050;55.492;13.506;2024-03-02T00:02:46;86.53;;;42.70;;
19780;SDS011;10050;55.492;13.506;2024-03-02T00:05:14;83.10;;;42.97;;
19780;SDS011;10050;55.492;13.506;2024-03-02T00:07:41;77.57;;;40.80;;
19780;SDS011;10050;55.492;13.506;2024-03-02T00:10:08;84.77;;;44.20;;
19780;SDS011;10050;55.492;13.506;2024-03-02T00:12:38;91.13;;;44.47;;
19780;SDS011;10050;55.492;13.506;2024-03-02T00:15:05;83.27;;;43.73;;
19780;SDS011;10050;55.492;13.506;2024-03-02T00:17:55;75.63;;;41.30;;
19780;SDS011;10050;55.492;13.506;2024-03-02T00:20:24;77.33;;;41.57;;
19780;SDS011;10050;55.492;13.506;2024-03-02T00:22:55;83.70;;;42.33;;
19780;SDS011;10050;55.492;13.506;2024-03-02T00:26:02;72.10;;;41.03;;
19780;SDS011;10050;55.492;13.506;2024-03-02T00:28:22;74.17;;;40.47;;
19780;SDS011;10050;55.492;13.506;2024-03-02T00:33:22;77.00;;;40.83;;
19780;SDS011;10050;55.492;13.506;2024-03-02T00:35:49;75.13;;;40.87;;
19780;SDS011;10050;55.492;13.506;2024-03-02T00:38:15;69.93;;;40.60;;
19780;SDS011;10050;55.492;13.506;2024-03-02T00:40:44;82.00;;;42.70;;
19780;SDS011;10050;55.492;13.506;2024-03-02T00:46:07;67.37;;;38.53;;
19780;SDS011;10050;55.492;13.506;2024-03-02T00:48:34;70.33;;;37.60;;
19780;SDS011;10050;55.492;13.506;2024-03-02T00:51:03;64.97;;;38.03;;
19780;SDS011;10050;55.492;13.506;2024-03-02T00:53:31;72.33;;;40.03;;
19780;SDS011;10050;55.492;13.506;2024-03-02T00:55:58;71.80;;;39.27;;
19780;SDS011;10050;55.492;13.506;2024-03-02T00:58:24;74.43;;;41.90;;
19780;SDS011;10050;55.492;13.506;2024-03-02T01:00:50;71.17;;;40.43;;
19780;SDS011;10050;55.492;13.506;2024-03-02T01:03:16;68.80;;;38.50;;
19780;SDS011;10050;55.492;13.506;2024-03-02T01:05:42;74.50;;;39.93;;
19780;SDS011;10050;55.492;13.506;2024-03-02T01:08:08;64.70;;;38.47;;
19780;SDS011;10050;55.492;13.506;2024-03-02T01:10:35;64.07;;;38.13;;
19780;SDS011;10050;55.492;13.506;2024-03-02T01:13:00;62.80;;;37.87;;
19780;SDS011;10050;55.492;13.506;2024-03-02T01:15:26;65.37;;;37.33;;
19780;SDS011;10050;55.492;13.506;2024-03-02T01:17:52;64.03;;;37.23;;
19780;SDS011;10050;55.492;13.506;2024-03-02T01:20:17;66.43;;;38.97;;
19780;SDS011;10050;55.492;13.506;2024-03-02T01:22:43;73.67;;;38.70;;
19780;SDS011;10050;55.492;13.506;2024-03-02T01:25:08;70.33;;;38.87;;
19780;SDS011;10050;55.492;13.506;2024-03-02T01:27:35;69.83;;;40.67;;
19780;SDS011;10050;55.492;13.506;2024-03-02T01:30:00;72.20;;;42.63;;
19780;SDS011;10050;55.492;13.506;2024-03-02T01:32:26;77.03;;;42.47;;
19780;SDS011;10050;55.492;13.506;2024-03-02T01:34:52;77.03;;;41.63;;
19780;SDS011;10050;55.492;13.506;2024-03-02T01:37:17;81.50;;;42.53;;
19780;SDS011;10050;55.492;13.506;2024-03-02T01:39:44;67.87;;;39.20;;
19780;SDS011;10050;55.492;13.506;2024-03-02T01:42:09;78.90;;;41.57;;
19780;SDS011;10050;55.492;13.506;2024-03-02T01:44:36;85.60;;;41.73;;
19780;SDS011;10050;55.492;13.506;2024-03-02T01:47:01;81.27;;;43.23;;
19780;SDS011;10050;55.492;13.506;2024-03-02T01:49:27;86.00;;;46.33;;
19780;SDS011;10050;55.492;13.506;2024-03-02T01:51:53;94.33;;;44.53;;
19780;SDS011;10050;55.492;13.506;2024-03-02T01:54:18;98.70;;;47.37;;
19780;SDS011;10050;55.492;13.506;2024-03-02T01:56:44;101.07;;;49.17;;
19780;SDS011;10050;55.492;13.506;2024-03-02T01:59:10;106.67;;;50.50;;
19780;SDS011;10050;55.492;13.506;2024-03-02T02:01:38;103.50;;;47.83;;
19780;SDS011;10050;55.492;13.506;2024-03-02T02:04:04;113.87;;;53.10;;
19780;SDS011;10050;55.492;13.506;2024-03-02T02:06:31;103.93;;;49.80;;
19780;SDS011;10050;55.492;13.506;2024-03-02T02:08:57;115.70;;;51.53;;
19780;SDS011;10050;55.492;13.506;2024-03-02T02:11:23;120.07;;;53.83;;
19780;SDS011;10050;55.492;13.506;2024-03-02T02:13:49;106.97;;;50.30;;
19780;SDS011;10050;55.492;13.506;2024-03-02T02:16:14;122.20;;;53.20;;
19780;SDS011;10050;55.492;13.506;2024-03-02T02:18:40;118.50;;;53.60;;
19780;SDS011;10050;55.492;13.506;2024-03-02T02:21:06;121.70;;;52.90;;
19780;SDS011;10050;55.492;13.506;2024-03-02T02:23:31;120.73;;;55.60;;
19780;SDS011;10050;55.492;13.506;2024-03-02T02:25:57;128.07;;;57.00;;
19780;SDS011;10050;55.492;13.506;2024-03-02T02:28:23;125.83;;;56.27;;
19780;SDS011;10050;55.492;13.506;2024-03-02T02:30:48;126.73;;;57.30;;
19780;SDS011;10050;55.492;13.506;2024-03-02T02:33:14;134.93;;;57.53;;
19780;SDS011;10050;55.492;13.506;2024-03-02T02:35:39;124.67;;;58.23;;
19780;SDS011;10050;55.492;13.506;2024-03-02T02:38:05;131.00;;;56.50;;
19780;SDS011;10050;55.492;13.506;2024-03-02T02:40:31;138.53;;;60.70;;
19780;SDS011;10050;55.492;13.506;2024-03-02T02:42:57;137.97;;;62.17;;
19780;SDS011;10050;55.492;13.506;2024-03-02T02:45:24;141.63;;;59.23;;
19780;SDS011;10050;55.492;13.506;2024-03-02T02:47:50;144.37;;;60.47;;
19780;SDS011;10050;55.492;13.506;2024-03-02T02:50:15;152.43;;;63.43;;
19780;SDS011;10050;55.492;13.506;2024-03-02T02:52:41;150.23;;;64.00;;
19780;SDS011;10050;55.492;13.506;2024-03-02T02:55:08;140.17;;;61.53;;
19780;SDS011;10050;55.492;13.506;2024-03-02T02:57:36;152.93;;;63.17;;
19780;SDS011;10050;55.492;13.506;2024-03-02T03:00:07;165.70;;;64.47;;
19780;SDS011;10050;55.492;13.506;2024-03-02T03:02:38;153.90;;;63.13;;
19780;SDS011;10050;55.492;13.506;2024-03-02T03:05:05;158.23;;;64.60;;
19780;SDS011;10050;55.492;13.506;2024-03-02T03:07:31;165.63;;;67.47;;
19780;SDS011;10050;55.492;13.506;2024-03-02T03:09:58;160.40;;;63.50;;
19780;SDS011;10050;55.492;13.506;2024-03-02T03:12:23;154.97;;;65.30;;
19780;SDS011;10050;55.492;13.506;2024-03-02T03:14:49;170.53;;;67.00;;
19780;SDS011;10050;55.492;13.506;2024-03-02T03:17:14;188.73;;;69.33;;
19780;SDS011;10050;55.492;13.506;2024-03-02T03:19:40;187.13;;;69.27;;
19780;SDS011;10050;55.492;13.506;2024-03-02T03:22:05;171.93;;;67.03;;
19780;SDS011;10050;55.492;13.506;2024-03-02T03:24:31;170.57;;;68.20;;
19780;SDS011;10050;55.492;13.506;2024-03-02T03:26:58;195.67;;;68.40;;
19780;SDS011;10050;55.492;13.506;2024-03-02T03:29:23;193.67;;;72.57;;
19780;SDS011;10050;55.492;13.506;2024-03-02T03:31:49;204.27;;;74.97;;
19780;SDS011;10050;55.492;13.506;2024-03-02T03:34:15;195.03;;;71.67;;
19780;SDS011;10050;55.492;13.506;2024-03-02T03:36:41;209.77;;;72.63;;
19780;SDS011;10050;55.492;13.506;2024-03-02T03:39:07;191.10;;;71.93;;
19780;SDS011;10050;55.492;13.506;2024-03-02T03:41:32;185.33;;;70.97;;
19780;SDS011;10050;55.492;13.506;2024-03-02T03:43:58;199.10;;;68.73;;
19780;SDS011;10050;55.492;13.506;2024-03-02T03:46:24;203.27;;;72.03;;
19780;SDS011;10050;55.492;13.506;2024-03-02T03:48:49;189.87;;;73.93;;
19780;SDS011;10050;55.492;13.506;2024-03-02T03:51:15;217.37;;;76.10;;
19780;SDS011;10050;55.492;13.506;2024-03-02T03:53:41;214.67;;;73.47;;
19780;SDS011;10050;55.492;13.506;2024-03-02T03:56:06;203.30;;;74.40;;
19780;SDS011;10050;55.492;13.506;2024-03-02T03:58:32;211.13;;;74.53;;
19780;SDS011;10050;55.492;13.506;2024-03-02T04:00:58;207.30;;;74.67;;
19780;SDS011;10050;55.492;13.506;2024-03-02T04:03:23;200.23;;;72.80;;
19780;SDS011;10050;55.492;13.506;2024-03-02T04:05:51;212.77;;;74.80;;
19780;SDS011;10050;55.492;13.506;2024-03-02T04:08:17;224.20;;;76.20;;
19780;SDS011;10050;55.492;13.506;2024-03-02T04:10:43;212.90;;;73.20;;
19780;SDS011;10050;55.492;13.506;2024-03-02T04:13:08;200.90;;;73.23;;
19780;SDS011;10050;55.492;13.506;2024-03-02T04:15:34;222.67;;;75.43;;
19780;SDS011;10050;55.492;13.506;2024-03-02T04:18:00;235.40;;;77.83;;
19780;SDS011;10050;55.492;13.506;2024-03-02T04:20:26;194.77;;;73.57;;
19780;SDS011;10050;55.492;13.506;2024-03-02T04:22:51;212.13;;;74.63;;
19780;SDS011;10050;55.492;13.506;2024-03-02T04:25:17;217.97;;;75.70;;
19780;SDS011;10050;55.492;13.506;2024-03-02T04:27:42;216.33;;;74.93;;
19780;SDS011;10050;55.492;13.506;2024-03-02T04:30:08;218.33;;;73.63;;
19780;SDS011;10050;55.492;13.506;2024-03-02T04:32:34;213.67;;;74.47;;
19780;SDS011;10050;55.492;13.506;2024-03-02T04:35:01;219.43;;;75.37;;
19780;SDS011;10050;55.492;13.506;2024-03-02T04:37:26;218.17;;;76.73;;
19780;SDS011;10050;55.492;13.506;2024-03-02T04:39:52;221.40;;;77.17;;
19780;SDS011;10050;55.492;13.506;2024-03-02T04:42:17;219.97;;;75.37;;
19780;SDS011;10050;55.492;13.506;2024-03-02T04:44:43;213.00;;;73.37;;
19780;SDS011;10050;55.492;13.506;2024-03-02T04:47:09;204.27;;;74.53;;
19780;SDS011;10050;55.492;13.506;2024-03-02T04:49:34;225.57;;;79.13;;
19780;SDS011;10050;55.492;13.506;2024-03-02T04:52:00;238.83;;;77.77;;
19780;SDS011;10050;55.492;13.506;2024-03-02T04:54:26;209.87;;;74.17;;
19780;SDS011;10050;55.492;13.506;2024-03-02T04:56:51;210.77;;;76.37;;
19780;SDS011;10050;55.492;13.506;2024-03-02T04:59:17;204.10;;;72.77;;
19780;SDS011;10050;55.492;13.506;2024-03-02T05:01:43;208.20;;;73.73;;
19780;SDS011;10050;55.492;13.506;2024-03-02T05:04:10;195.20;;;72.93;;
19780;SDS011;10050;55.492;13.506;2024-03-02T05:06:38;214.27;;;78.00;;
19780;SDS011;10050;55.492;13.506;2024-03-02T05:09:07;222.50;;;75.97;;
19780;SDS011;10050;55.492;13.506;2024-03-02T05:11:33;199.27;;;73.83;;
19780;SDS011;10050;55.492;13.506;2024-03-02T05:14:02;216.83;;;74.47;;
19780;SDS011;10050;55.492;13.506;2024-03-02T05:16:36;207.27;;;78.17;;
19780;SDS011;10050;55.492;13.506;2024-03-02T05:19:06;203.87;;;77.60;;
19780;SDS011;10050;55.492;13.506;2024-03-02T05:21:32;215.80;;;77.13;;
19780;SDS011;10050;55.492;13.506;2024-03-02T05:23:59;214.20;;;75.87;;
19780;SDS011;10050;55.492;13.506;2024-03-02T05:26:24;217.90;;;73.97;;
19780;SDS011;10050;55.492;13.506;2024-03-02T05:28:50;204.70;;;74.17;;
19780;SDS011;10050;55.492;13.506;2024-03-02T05:31:16;199.00;;;73.77;;
19780;SDS011;10050;55.492;13.506;2024-03-02T05:33:42;183.87;;;72.60;;
19780;SDS011;10050;55.492;13.506;2024-03-02T05:36:08;198.00;;;72.80;;
19780;SDS011;10050;55.492;13.506;2024-03-02T05:38:34;193.13;;;73.03;;
19780;SDS011;10050;55.492;13.506;2024-03-02T05:41:00;188.77;;;71.03;;
19780;SDS011;10050;55.492;13.506;2024-03-02T05:43:26;183.10;;;70.97;;
19780;SDS011;10050;55.492;13.506;2024-03-02T05:45:52;176.30;;;67.07;;
19780;SDS011;10050;55.492;13.506;2024-03-02T05:48:17;178.47;;;67.90;;
19780;SDS011;10050;55.492;13.506;2024-03-02T05:50:43;161.20;;;64.97;;
19780;SDS011;10050;55.492;13.506;2024-03-02T05:53:09;166.83;;;65.43;;
19780;SDS011;10050;55.492;13.506;2024-03-02T05:55:34;170.40;;;66.47;;
19780;SDS011;10050;55.492;13.506;2024-03-02T05:58:00;164.30;;;64.20;;
19780;SDS011;10050;55.492;13.506;2024-03-02T06:00:32;168.47;;;65.27;;
19780;SDS011;10050;55.492;13.506;2024-03-02T06:02:58;155.00;;;65.03;;
19780;SDS011;10050;55.492;13.506;2024-03-02T06:05:26;150.00;;;63.23;;
19780;SDS011;10050;55.492;13.506;2024-03-02T06:07:52;141.10;;;60.57;;
19780;SDS011;10050;55.492;13.506;2024-03-02T06:10:17;150.63;;;60.57;;
19780;SDS011;10050;55.492;13.506;2024-03-02T06:12:43;141.23;;;59.87;;
19780;SDS011;10050;55.492;13.506;2024-03-02T06:15:09;132.53;;;57.27;;
19780;SDS011;10050;55.492;13.506;2024-03-02T06:17:36;131.30;;;58.77;;
19780;SDS011;10050;55.492;13.506;2024-03-02T06:20:02;130.67;;;58.07;;
19780;SDS011;10050;55.492;13.506;2024-03-02T06:22:30;131.17;;;55.70;;
19780;SDS011;10050;55.492;13.506;2024-03-02T06:24:59;131.13;;;57.80;;
19780;SDS011;10050;55.492;13.506;2024-03-02T06:27:25;134.77;;;59.73;;
19780;SDS011;10050;55.492;13.506;2024-03-02T06:29:51;127.90;;;57.13;;
19780;SDS011;10050;55.492;13.506;2024-03-02T06:32:17;130.57;;;55.93;;
19780;SDS011;10050;55.492;13.506;2024-03-02T06:34:42;115.53;;;53.73;;
19780;SDS011;10050;55.492;13.506;2024-03-02T06:37:08;121.57;;;54.27;;
19780;SDS011;10050;55.492;13.506;2024-03-02T06:39:34;112.37;;;53.30;;
19780;SDS011;10050;55.492;13.506;2024-03-02T06:42:01;105.90;;;50.90;;
19780;SDS011;10050;55.492;13.506;2024-03-02T06:44:29;107.30;;;53.20;;
19780;SDS011;10050;55.492;13.506;2024-03-02T06:46:55;103.90;;;48.77;;
19780;SDS011;10050;55.492;13.506;2024-03-02T06:49:21;108.80;;;48.67;;
19780;SDS011;10050;55.492;13.506;2024-03-02T06:51:51;105.87;;;49.60;;
19780;SDS011;10050;55.492;13.506;2024-03-02T06:54:17;95.10;;;47.23;;
19780;SDS011;10050;55.492;13.506;2024-03-02T06:56:44;94.83;;;46.30;;
19780;SDS011;10050;55.492;13.506;2024-03-02T06:59:10;87.23;;;45.37;;
19780;SDS011;10050;55.492;13.506;2024-03-02T07:01:43;86.33;;;44.57;;
19780;SDS011;10050;55.492;13.506;2024-03-02T07:04:09;89.80;;;44.47;;
19780;SDS011;10050;55.492;13.506;2024-03-02T07:06:34;89.93;;;43.27;;
19780;SDS011;10050;55.492;13.506;2024-03-02T07:09:00;82.03;;;42.27;;
19780;SDS011;10050;55.492;13.506;2024-03-02T07:11:26;84.80;;;42.87;;
19780;SDS011;10050;55.492;13.506;2024-03-02T07:13:52;87.73;;;42.50;;
19780;SDS011;10050;55.492;13.506;2024-03-02T07:16:18;87.00;;;43.17;;
19780;SDS011;10050;55.492;13.506;2024-03-02T07:18:54;93.40;;;44.00;;
19780;SDS011;10050;55.492;13.506;2024-03-02T07:21:21;96.33;;;46.40;;
19780;SDS011;10050;55.492;13.506;2024-03-02T07:23:48;99.53;;;46.03;;
19780;SDS011;10050;55.492;13.506;2024-03-02T07:26:14;110.03;;;45.33;;
19780;SDS011;10050;55.492;13.506;2024-03-02T07:28:40;99.07;;;44.27;;
19780;SDS011;10050;55.492;13.506;2024-03-02T07:31:06;85.70;;;42.60;;
19780;SDS011;10050;55.492;13.506;2024-03-02T07:33:32;89.60;;;40.83;;
19780;SDS011;10050;55.492;13.506;2024-03-02T07:35:58;90.10;;;41.57;;
19780;SDS011;10050;55.492;13.506;2024-03-02T07:38:27;94.27;;;42.77;;
19780;SDS011;10050;55.492;13.506;2024-03-02T07:40:56;91.83;;;42.73;;
19780;SDS011;10050;55.492;13.506;2024-03-02T07:43:23;94.37;;;41.60;;
19780;SDS011;10050;55.492;13.506;2024-03-02T07:45:48;96.10;;;43.70;;
19780;SDS011;10050;55.492;13.506;2024-03-02T07:48:15;93.37;;;42.90;;
19780;SDS011;10050;55.492;13.506;2024-03-02T07:50:45;102.17;;;45.70;;
19780;SDS011;10050;55.492;13.506;2024-03-02T07:53:11;107.33;;;43.83;;
19780;SDS011;10050;55.492;13.506;2024-03-02T07:55:37;109.20;;;45.90;;
19780;SDS011;10050;55.492;13.506;2024-03-02T07:58:02;111.30;;;47.23;;
19780;SDS011;10050;55.492;13.506;2024-03-02T08:00:28;121.03;;;46.90;;
19780;SDS011;10050;55.492;13.506;2024-03-02T08:02:54;139.07;;;50.50;;
19780;SDS011;10050;55.492;13.506;2024-03-02T08:05:20;139.90;;;49.40;;
19780;SDS011;10050;55.492;13.506;2024-03-02T08:07:46;156.07;;;52.73;;
19780;SDS011;10050;55.492;13.506;2024-03-02T08:10:12;149.60;;;52.73;;
19780;SDS011;10050;55.492;13.506;2024-03-02T08:12:38;209.20;;;55.30;;
19780;SDS011;10050;55.492;13.506;2024-03-02T08:15:04;204.00;;;55.90;;
19780;SDS011;10050;55.492;13.506;2024-03-02T08:17:31;145.23;;;50.07;;
19780;SDS011;10050;55.492;13.506;2024-03-02T08:19:56;160.03;;;51.90;;
19780;SDS011;10050;55.492;13.506;2024-03-02T08:22:23;147.40;;;50.97;;
19780;SDS011;10050;55.492;13.506;2024-03-02T08:24:50;143.63;;;49.87;;
19780;SDS011;10050;55.492;13.506;2024-03-02T08:27:16;122.57;;;46.83;;
19780;SDS011;10050;55.492;13.506;2024-03-02T08:29:42;114.90;;;43.43;;
19780;SDS011;10050;55.492;13.506;2024-03-02T08:32:08;94.97;;;43.03;;
19780;SDS011;10050;55.492;13.506;2024-03-02T08:34:34;102.00;;;44.33;;
19780;SDS011;10050;55.492;13.506;2024-03-02T08:37:00;97.97;;;42.30;;
19780;SDS011;10050;55.492;13.506;2024-03-02T08:39:27;112.77;;;47.10;;
19780;SDS011;10050;55.492;13.506;2024-03-02T08:41:53;130.50;;;48.93;;
19780;SDS011;10050;55.492;13.506;2024-03-02T08:44:19;152.47;;;52.97;;
19780;SDS011;10050;55.492;13.506;2024-03-02T08:46:45;151.23;;;55.53;;
19780;SDS011;10050;55.492;13.506;2024-03-02T08:49:10;153.00;;;54.17;;
19780;SDS011;10050;55.492;13.506;2024-03-02T08:51:37;180.63;;;57.93;;
19780;SDS011;10050;55.492;13.506;2024-03-02T08:54:02;178.13;;;57.77;;
19780;SDS011;10050;55.492;13.506;2024-03-02T08:56:29;177.30;;;55.87;;
19780;SDS011;10050;55.492;13.506;2024-03-02T08:58:55;219.17;;;58.33;;
19780;SDS011;10050;55.492;13.506;2024-03-02T09:01:21;198.10;;;56.70;;
19780;SDS011;10050;55.492;13.506;2024-03-02T09:03:47;202.50;;;60.37;;
19780;SDS011;10050;55.492;13.506;2024-03-02T09:06:14;196.83;;;60.50;;
19780;SDS011;10050;55.492;13.506;2024-03-02T09:08:42;225.93;;;61.03;;
19780;SDS011;10050;55.492;13.506;2024-03-02T09:11:08;201.37;;;59.03;;
19780;SDS011;10050;55.492;13.506;2024-03-02T09:13:35;206.27;;;56.83;;
19780;SDS011;10050;55.492;13.506;2024-03-02T09:16:05;195.97;;;58.13;;
19780;SDS011;10050;55.492;13.506;2024-03-02T09:18:36;225.43;;;62.63;;
19780;SDS011;10050;55.492;13.506;2024-03-02T09:21:04;214.33;;;60.17;;
19780;SDS011;10050;55.492;13.506;2024-03-02T09:23:30;237.70;;;58.73;;
19780;SDS011;10050;55.492;13.506;2024-03-02T09:25:55;219.93;;;57.43;;
19780;SDS011;10050;55.492;13.506;2024-03-02T09:28:21;211.87;;;57.27;;
19780;SDS011;10050;55.492;13.506;2024-03-02T09:30:47;193.67;;;56.03;;
19780;SDS011;10050;55.492;13.506;2024-03-02T09:33:12;263.80;;;58.73;;
19780;SDS011;10050;55.492;13.506;2024-03-02T09:35:38;204.60;;;55.97;;
19780;SDS011;10050;55.492;13.506;2024-03-02T09:38:03;256.60;;;58.43;;
19780;SDS011;10050;55.492;13.506;2024-03-02T09:40:29;287.60;;;58.63;;
19780;SDS011;10050;55.492;13.506;2024-03-02T09:42:55;257.57;;;56.63;;
19780;SDS011;10050;55.492;13.506;2024-03-02T09:45:22;206.30;;;54.33;;
19780;SDS011;10050;55.492;13.506;2024-03-02T09:47:49;273.13;;;56.63;;
19780;SDS011;10050;55.492;13.506;2024-03-02T09:50:15;228.90;;;53.17;;
19780;SDS011;10050;55.492;13.506;2024-03-02T09:52:47;180.97;;;49.50;;
19780;SDS011;10050;55.492;13.506;2024-03-02T09:55:13;150.07;;;49.10;;
19780;SDS011;10050;55.492;13.506;2024-03-02T09:57:40;134.27;;;45.20;;
19780;SDS011;10050;55.492;13.506;2024-03-02T10:00:07;126.53;;;46.33;;
19780;SDS011;10050;55.492;13.506;2024-03-02T10:02:33;123.93;;;45.83;;
19780;SDS011;10050;55.492;13.506;2024-03-02T10:04:59;139.87;;;47.10;;
19780;SDS011;10050;55.492;13.506;2024-03-02T10:07:24;119.60;;;45.20;;
19780;SDS011;10050;55.492;13.506;2024-03-02T10:09:50;128.10;;;44.80;;
19780;SDS011;10050;55.492;13.506;2024-03-02T10:12:17;106.83;;;40.70;;
19780;SDS011;10050;55.492;13.506;2024-03-02T10:14:43;109.60;;;39.93;;
19780;SDS011;10050;55.492;13.506;2024-03-02T10:17:13;89.10;;;37.47;;
19780;SDS011;10050;55.492;13.506;2024-03-02T10:19:40;90.70;;;37.83;;
19780;SDS011;10050;55.492;13.506;2024-03-02T10:22:09;76.37;;;35.97;;
19780;SDS011;10050;55.492;13.506;2024-03-02T10:24:36;92.63;;;37.97;;
19780;SDS011;10050;55.492;13.506;2024-03-02T10:27:10;88.97;;;39.33;;
19780;SDS011;10050;55.492;13.506;2024-03-02T10:29:41;106.23;;;41.33;;
19780;SDS011;10050;55.492;13.506;2024-03-02T10:32:10;94.10;;;39.77;;
19780;SDS011;10050;55.492;13.506;2024-03-02T10:34:36;85.97;;;37.53;;
19780;SDS011;10050;55.492;13.506;2024-03-02T10:37:05;81.70;;;36.87;;
19780;SDS011;10050;55.492;13.506;2024-03-02T10:39:32;77.77;;;36.50;;
19780;SDS011;10050;55.492;13.506;2024-03-02T10:42:00;92.97;;;37.03;;
19780;SDS011;10050;55.492;13.506;2024-03-02T10:44:28;103.27;;;38.90;;
19780;SDS011;10050;55.492;13.506;2024-03-02T10:46:55;103.43;;;41.80;;
19780;SDS011;10050;55.492;13.506;2024-03-02T10:49:22;115.83;;;43.17;;
19780;SDS011;10050;55.492;13.506;2024-03-02T10:51:50;119.67;;;45.63;;
19780;SDS011;10050;55.492;13.506;2024-03-02T10:54:15;150.20;;;48.43;;
19780;SDS011;10050;55.492;13.506;2024-03-02T10:56:43;154.00;;;51.10;;
19780;SDS011;10050;55.492;13.506;2024-03-02T10:59:21;188.73;;;51.10;;
19780;SDS011;10050;55.492;13.506;2024-03-02T11:01:57;174.93;;;52.73;;
19780;SDS011;10050;55.492;13.506;2024-03-02T11:04:25;201.63;;;54.00;;
19780;SDS011;10050;55.492;13.506;2024-03-02T11:06:52;178.90;;;54.03;;
19780;SDS011;10050;55.492;13.506;2024-03-02T11:09:25;194.07;;;52.80;;
19780;SDS011;10050;55.492;13.506;2024-03-02T11:11:56;154.37;;;50.53;;
19780;SDS011;10050;55.492;13.506;2024-03-02T11:14:37;147.73;;;51.60;;
19780;SDS011;10050;55.492;13.506;2024-03-02T11:17:08;162.60;;;55.03;;
19780;SDS011;10050;55.492;13.506;2024-03-02T11:19:35;211.50;;;55.20;;
19780;SDS011;10050;55.492;13.506;2024-03-02T11:22:03;201.17;;;56.60;;
19780;SDS011;10050;55.492;13.506;2024-03-02T11:24:30;261.43;;;58.67;;
19780;SDS011;10050;55.492;13.506;2024-03-02T11:27:04;197.90;;;56.20;;
19780;SDS011;10050;55.492;13.506;2024-03-02T11:32:03;230.90;;;57.50;;
19780;SDS011;10050;55.492;13.506;2024-03-02T11:34:33;240.73;;;57.60;;
19780;SDS011;10050;55.492;13.506;2024-03-02T11:37:03;236.90;;;57.83;;
19780;SDS011;10050;55.492;13.506;2024-03-02T11:39:29;207.57;;;54.27;;
19780;SDS011;10050;55.492;13.506;2024-03-02T11:41:56;205.27;;;55.87;;
19780;SDS011;10050;55.492;13.506;2024-03-02T11:44:24;246.80;;;57.63;;
19780;SDS011;10050;55.492;13.506;2024-03-02T11:47:00;339.33;;;64.07;;
19780;SDS011;10050;55.492;13.506;2024-03-02T11:52:04;288.77;;;59.17;;
19780;SDS011;10050;55.492;13.506;2024-03-02T11:54:32;245.37;;;59.67;;
19780;SDS011;10050;55.492;13.506;2024-03-02T11:57:03;272.53;;;59.63;;
19780;SDS011;10050;55.492;13.506;2024-03-02T11:59:29;293.63;;;64.50;;
19780;SDS011;10050;55.492;13.506;2024-03-02T12:01:57;263.17;;;62.30;;
19780;SDS011;10050;55.492;13.506;2024-03-02T12:04:24;253.03;;;59.50;;
19780;SDS011;10050;55.492;13.506;2024-03-02T12:07:00;202.27;;;56.83;;
19780;SDS011;10050;55.492;13.506;2024-03-02T12:09:29;269.73;;;62.97;;
19780;SDS011;10050;55.492;13.506;2024-03-02T12:12:08;301.93;;;60.67;;
19780;SDS011;10050;55.492;13.506;2024-03-02T12:14:38;283.40;;;60.93;;
19780;SDS011;10050;55.492;13.506;2024-03-02T12:17:14;270.73;;;64.23;;
19780;SDS011;10050;55.492;13.506;2024-03-02T12:19:40;233.10;;;59.70;;
19780;SDS011;10050;55.492;13.506;2024-03-02T12:22:05;275.90;;;61.23;;
19780;SDS011;10050;55.492;13.506;2024-03-02T12:24:31;238.87;;;60.60;;
19780;SDS011;10050;55.492;13.506;2024-03-02T12:26:57;262.90;;;61.20;;
19780;SDS011;10050;55.492;13.506;2024-03-02T12:29:23;250.17;;;63.13;;
19780;SDS011;10050;55.492;13.506;2024-03-02T12:31:49;197.83;;;57.47;;
19780;SDS011;10050;55.492;13.506;2024-03-02T12:34:17;286.67;;;67.00;;
19780;SDS011;10050;55.492;13.506;2024-03-02T12:36:44;261.70;;;63.17;;
19780;SDS011;10050;55.492;13.506;2024-03-02T12:39:15;259.83;;;61.20;;
19780;SDS011;10050;55.492;13.506;2024-03-02T12:41:46;231.60;;;60.80;;
19780;SDS011;10050;55.492;13.506;2024-03-02T12:44:11;199.83;;;61.90;;
19780;SDS011;10050;55.492;13.506;2024-03-02T12:46:37;197.97;;;59.13;;
19780;SDS011;10050;55.492;13.506;2024-03-02T12:49:10;199.33;;;59.53;;
19780;SDS011;10050;55.492;13.506;2024-03-02T12:51:38;181.07;;;57.57;;
19780;SDS011;10050;55.492;13.506;2024-03-02T12:54:06;197.30;;;59.77;;
19780;SDS011;10050;55.492;13.506;2024-03-02T12:56:32;179.93;;;59.47;;
19780;SDS011;10050;55.492;13.506;2024-03-02T12:59:01;196.67;;;60.23;;
19780;SDS011;10050;55.492;13.506;2024-03-02T13:01:27;178.10;;;58.60;;
19780;SDS011;10050;55.492;13.506;2024-03-02T13:03:53;190.27;;;59.50;;
19780;SDS011;10050;55.492;13.506;2024-03-02T13:06:23;172.30;;;59.37;;
19780;SDS011;10050;55.492;13.506;2024-03-02T13:08:52;216.73;;;60.37;;
19780;SDS011;10050;55.492;13.506;2024-03-02T13:11:18;202.30;;;60.97;;
19780;SDS011;10050;55.492;13.506;2024-03-02T13:13:45;220.03;;;61.07;;
19780;SDS011;10050;55.492;13.506;2024-03-02T13:16:12;205.67;;;59.37;;
19780;SDS011;10050;55.492;13.506;2024-03-02T13:18:40;203.30;;;61.93;;
19780;SDS011;10050;55.492;13.506;2024-03-02T13:21:07;213.87;;;61.30;;
19780;SDS011;10050;55.492;13.506;2024-03-02T13:23:33;237.43;;;62.13;;
19780;SDS011;10050;55.492;13.506;2024-03-02T13:26:01;243.70;;;66.10;;
19780;SDS011;10050;55.492;13.506;2024-03-02T13:28:27;219.20;;;61.20;;
19780;SDS011;10050;55.492;13.506;2024-03-02T13:30:53;243.87;;;62.60;;
19780;SDS011;10050;55.492;13.506;2024-03-02T13:33:18;253.53;;;66.60;;
19780;SDS011;10050;55.492;13.506;2024-03-02T13:35:47;270.10;;;62.63;;
19780;SDS011;10050;55.492;13.506;2024-03-02T13:38:15;269.87;;;61.37;;
19780;SDS011;10050;55.492;13.506;2024-03-02T13:40:44;250.30;;;61.93;;
19780;SDS011;10050;55.492;13.506;2024-03-02T13:43:10;236.37;;;63.53;;
19780;SDS011;10050;55.492;13.506;2024-03-02T13:45:37;236.87;;;59.00;;
19780;SDS011;10050;55.492;13.506;2024-03-02T13:48:03;244.13;;;61.17;;
19780;SDS011;10050;55.492;13.506;2024-03-02T13:50:28;253.10;;;60.63;;
19780;SDS011;10050;55.492;13.506;2024-03-02T13:52:55;257.13;;;58.87;;
19780;SDS011;10050;55.492;13.506;2024-03-02T13:55:21;290.17;;;64.50;;
19780;SDS011;10050;55.492;13.506;2024-03-02T13:57:47;314.60;;;63.67;;
19780;SDS011;10050;55.492;13.506;2024-03-02T14:00:15;224.43;;;59.67;;
19780;SDS011;10050;55.492;13.506;2024-03-02T14:02:42;304.30;;;65.67;;
19780;SDS011;10050;55.492;13.506;2024-03-02T14:05:08;286.83;;;62.70;;
19780;SDS011;10050;55.492;13.506;2024-03-02T14:07:43;216.90;;;58.23;;